sensor_id;sensor_type;location;lat;lon;timestamp;temperature;humidity
7163;DHT22;3623;47.098;15.446;2023-05-28T00:01:36;12.40;99.90
7163;DHT22;3623;47.098;15.446;2023-05-28T00:04:03;12.50;99.90
7163;DHT22;3623;47.098;15.446;2023-05-28T00:06:30;12.40;99.90
7163;DHT22;3623;47.098;15.446;2023-05-28T00:08:57;12.50;99.90
7163;DHT22;3623;47.098;15.446;2023-05-28T00:11:26;12.40;99.90
7163;DHT22;3623;47.098;15.446;2023-05-28T00:13:53;12.30;99.90
7163;DHT22;3623;47.098;15.446;2023-05-28T00:16:20;12.30;99.90
7163;DHT22;3623;47.098;15.446;2023-05-28T00:18:47;12.30;99.90
7163;DHT22;3623;47.098;15.446;2023-05-28T00:21:14;12.30;99.90
7163;DHT22;3623;47.098;15.446;2023-05-28T00:23:41;12.30;99.90
7163;DHT22;3623;47.098;15.446;2023-05-28T00:26:08;12.20;99.90
7163;DHT22;3623;47.098;15.446;2023-05-28T00:28:37;12.10;99.90
7163;DHT22;3623;47.098;15.446;2023-05-28T00:31:04;12.00;99.90
7163;DHT22;3623;47.098;15.446;2023-05-28T00:33:32;12.10;99.90
7163;DHT22;3623;47.098;15.446;2023-05-28T00:35:59;12.00;99.90
7163;DHT22;3623;47.098;15.446;2023-05-28T00:38:26;12.00;99.90
7163;DHT22;3623;47.098;15.446;2023-05-28T00:40:53;12.10;99.90
7163;DHT22;3623;47.098;15.446;2023-05-28T00:43:21;12.10;99.90
7163;DHT22;3623;47.098;15.446;2023-05-28T00:45:50;12.10;99.90
7163;DHT22;3623;47.098;15.446;2023-05-28T00:48:17;12.00;99.90
7163;DHT22;3623;47.098;15.446;2023-05-28T00:50:46;11.90;99.90
7163;DHT22;3623;47.098;15.446;2023-05-28T00:53:14;12.00;99.90
7163;DHT22;3623;47.098;15.446;2023-05-28T00:55:41;12.10;99.90
7163;DHT22;3623;47.098;15.446;2023-05-28T00:58:10;11.90;99.90
7163;DHT22;3623;47.098;15.446;2023-05-28T01:00:37;12.00;99.90
7163;DHT22;3623;47.098;15.446;2023-05-28T01:03:06;12.00;99.90
7163;DHT22;3623;47.098;15.446;2023-05-28T01:05:33;11.70;99.90
7163;DHT22;3623;47.098;15.446;2023-05-28T01:08:00;11.60;99.90
7163;DHT22;3623;47.098;15.446;2023-05-28T01:10:29;11.70;99.90
7163;DHT22;3623;47.098;15.446;2023-05-28T01:12:59;11.80;99.90
7163;DHT22;3623;47.098;15.446;2023-05-28T01:15:27;11.60;99.90
7163;DHT22;3623;47.098;15.446;2023-05-28T01:17:57;11.60;99.90
7163;DHT22;3623;47.098;15.446;2023-05-28T01:20:26;11.70;99.90
7163;DHT22;3623;47.098;15.446;2023-05-28T01:22:55;11.50;99.90
7163;DHT22;3623;47.098;15.446;2023-05-28T01:25:24;11.60;99.90
7163;DHT22;3623;47.098;15.446;2023-05-28T01:27:51;11.50;99.90
7163;DHT22;3623;47.098;15.446;2023-05-28T01:30:19;11.50;99.90
7163;DHT22;3623;47.098;15.446;2023-05-28T01:32:47;11.50;99.90
7163;DHT22;3623;47.098;15.446;2023-05-28T01:35:14;11.40;99.90
7163;DHT22;3623;47.098;15.446;2023-05-28T01:37:47;11.40;99.90
7163;DHT22;3623;47.098;15.446;2023-05-28T01:40:16;11.40;99.90
7163;DHT22;3623;47.098;15.446;2023-05-28T01:42:45;11.40;99.90
7163;DHT22;3623;47.098;15.446;2023-05-28T01:45:13;11.30;99.90
7163;DHT22;3623;47.098;15.446;2023-05-28T01:47:41;11.40;99.90
7163;DHT22;3623;47.098;15.446;2023-05-28T01:50:09;11.30;99.90
7163;DHT22;3623;47.098;15.446;2023-05-28T01:52:36;11.20;99.90
7163;DHT22;3623;47.098;15.446;2023-05-28T01:55:05;11.30;99.90
7163;DHT22;3623;47.098;15.446;2023-05-28T01:57:34;11.30;99.90
7163;DHT22;3623;47.098;15.446;2023-05-28T02:00:03;11.20;99.90
7163;DHT22;3623;47.098;15.446;2023-05-28T02:02:31;11.20;99.90
7163;DHT22;3623;47.098;15.446;2023-05-28T02:04:59;11.30;99.90
7163;DHT22;3623;47.098;15.446;2023-05-28T02:07:26;11.20;99.90
7163;DHT22;3623;47.098;15.446;2023-05-28T02:09:54;11.10;99.90
7163;DHT22;3623;47.098;15.446;2023-05-28T02:12:21;11.20;99.90
7163;DHT22;3623;47.098;15.446;2023-05-28T02:14:48;11.10;99.90
7163;DHT22;3623;47.098;15.446;2023-05-28T02:17:16;11.00;99.90
7163;DHT22;3623;47.098;15.446;2023-05-28T02:19:44;11.10;99.90
7163;DHT22;3623;47.098;15.446;2023-05-28T02:22:11;11.10;99.90
7163;DHT22;3623;47.098;15.446;2023-05-28T02:24:39;10.70;99.90
7163;DHT22;3623;47.098;15.446;2023-05-28T02:27:06;10.90;99.90
7163;DHT22;3623;47.098;15.446;2023-05-28T02:29:33;10.90;99.90
7163;DHT22;3623;47.098;15.446;2023-05-28T02:32:01;11.00;99.90
7163;DHT22;3623;47.098;15.446;2023-05-28T02:34:30;10.90;99.90
7163;DHT22;3623;47.098;15.446;2023-05-28T02:36:57;10.80;99.90
7163;DHT22;3623;47.098;15.446;2023-05-28T02:39:25;10.80;99.90
7163;DHT22;3623;47.098;15.446;2023-05-28T02:41:53;11.40;99.90
7163;DHT22;3623;47.098;15.446;2023-05-28T02:44:21;10.80;99.90
7163;DHT22;3623;47.098;15.446;2023-05-28T02:46:48;10.80;99.90
7163;DHT22;3623;47.098;15.446;2023-05-28T02:49:15;10.80;99.90
7163;DHT22;3623;47.098;15.446;2023-05-28T02:51:44;11.00;99.90
7163;DHT22;3623;47.098;15.446;2023-05-28T02:54:11;10.70;99.90
7163;DHT22;3623;47.098;15.446;2023-05-28T02:56:38;10.70;99.90
7163;DHT22;3623;47.098;15.446;2023-05-28T02:59:05;10.60;99.90
7163;DHT22;3623;47.098;15.446;2023-05-28T03:01:32;10.60;99.90
7163;DHT22;3623;47.098;15.446;2023-05-28T03:03:59;10.60;99.90
7163;DHT22;3623;47.098;15.446;2023-05-28T03:06:26;10.60;99.90
7163;DHT22;3623;47.098;15.446;2023-05-28T03:08:54;10.60;99.90
7163;DHT22;3623;47.098;15.446;2023-05-28T03:11:21;10.50;99.90
7163;DHT22;3623;47.098;15.446;2023-05-28T03:13:48;10.50;99.90
7163;DHT22;3623;47.098;15.446;2023-05-28T03:16:16;10.50;99.90
7163;DHT22;3623;47.098;15.446;2023-05-28T03:18:43;10.40;99.90
7163;DHT22;3623;47.098;15.446;2023-05-28T03:21:10;10.40;99.90
7163;DHT22;3623;47.098;15.446;2023-05-28T03:23:37;10.30;99.90
7163;DHT22;3623;47.098;15.446;2023-05-28T03:26:06;10.40;99.90
7163;DHT22;3623;47.098;15.446;2023-05-28T03:28:33;10.40;99.90
7163;DHT22;3623;47.098;15.446;2023-05-28T03:31:00;11.20;99.90
7163;DHT22;3623;47.098;15.446;2023-05-28T03:33:27;10.40;99.90
7163;DHT22;3623;47.098;15.446;2023-05-28T03:35:54;10.40;99.90
7163;DHT22;3623;47.098;15.446;2023-05-28T03:38:22;10.40;99.90
7163;DHT22;3623;47.098;15.446;2023-05-28T03:40:49;10.40;99.90
7163;DHT22;3623;47.098;15.446;2023-05-28T03:43:17;10.40;99.90
7163;DHT22;3623;47.098;15.446;2023-05-28T03:45:44;10.30;99.90
7163;DHT22;3623;47.098;15.446;2023-05-28T03:48:11;10.40;99.90
7163;DHT22;3623;47.098;15.446;2023-05-28T03:50:38;10.40;99.90
7163;DHT22;3623;47.098;15.446;2023-05-28T03:53:06;10.40;99.90
7163;DHT22;3623;47.098;15.446;2023-05-28T03:55:33;10.40;99.90
7163;DHT22;3623;47.098;15.446;2023-05-28T03:58:01;10.50;99.90
7163;DHT22;3623;47.098;15.446;2023-05-28T04:00:30;10.50;99.90
7163;DHT22;3623;47.098;15.446;2023-05-28T04:02:57;10.70;99.90
7163;DHT22;3623;47.098;15.446;2023-05-28T04:05:24;11.00;99.90
7163;DHT22;3623;47.098;15.446;2023-05-28T04:07:51;10.50;99.90
7163;DHT22;3623;47.098;15.446;2023-05-28T04:10:18;10.60;99.90
7163;DHT22;3623;47.098;15.446;2023-05-28T04:12:45;10.70;99.90
7163;DHT22;3623;47.098;15.446;2023-05-28T04:15:14;10.70;99.90
7163;DHT22;3623;47.098;15.446;2023-05-28T04:17:43;10.70;99.90
7163;DHT22;3623;47.098;15.446;2023-05-28T04:20:10;10.90;99.90
7163;DHT22;3623;47.098;15.446;2023-05-28T04:22:38;10.80;99.90
7163;DHT22;3623;47.098;15.446;2023-05-28T04:25:05;10.90;99.90
7163;DHT22;3623;47.098;15.446;2023-05-28T04:27:32;10.80;99.90
7163;DHT22;3623;47.098;15.446;2023-05-28T04:30:00;10.90;99.90
7163;DHT22;3623;47.098;15.446;2023-05-28T04:32:27;10.90;99.90
7163;DHT22;3623;47.098;15.446;2023-05-28T04:34:58;11.00;99.90
7163;DHT22;3623;47.098;15.446;2023-05-28T04:37:29;11.10;99.90
7163;DHT22;3623;47.098;15.446;2023-05-28T04:39:58;11.10;99.90
7163;DHT22;3623;47.098;15.446;2023-05-28T04:42:25;11.10;99.90
7163;DHT22;3623;47.098;15.446;2023-05-28T04:44:53;11.10;99.90
7163;DHT22;3623;47.098;15.446;2023-05-28T04:47:20;11.20;99.90
7163;DHT22;3623;47.098;15.446;2023-05-28T04:49:48;11.20;99.90
7163;DHT22;3623;47.098;15.446;2023-05-28T04:52:17;11.30;99.90
7163;DHT22;3623;47.098;15.446;2023-05-28T04:54:45;11.20;99.90
7163;DHT22;3623;47.098;15.446;2023-05-28T04:57:12;11.50;99.90
7163;DHT22;3623;47.098;15.446;2023-05-28T04:59:40;11.40;99.90
7163;DHT22;3623;47.098;15.446;2023-05-28T05:02:08;11.40;99.90
7163;DHT22;3623;47.098;15.446;2023-05-28T05:04:35;11.50;99.90
7163;DHT22;3623;47.098;15.446;2023-05-28T05:07:02;11.50;99.90
7163;DHT22;3623;47.098;15.446;2023-05-28T05:09:31;11.60;99.90
7163;DHT22;3623;47.098;15.446;2023-05-28T05:11:58;11.70;99.90
7163;DHT22;3623;47.098;15.446;2023-05-28T05:14:25;11.70;99.90
7163;DHT22;3623;47.098;15.446;2023-05-28T05:16:52;11.70;99.90
7163;DHT22;3623;47.098;15.446;2023-05-28T05:19:19;11.90;99.90
7163;DHT22;3623;47.098;15.446;2023-05-28T05:21:46;11.90;99.90
7163;DHT22;3623;47.098;15.446;2023-05-28T05:24:14;12.00;99.90
7163;DHT22;3623;47.098;15.446;2023-05-28T05:26:43;12.10;99.90
7163;DHT22;3623;47.098;15.446;2023-05-28T05:29:10;12.10;99.90
7163;DHT22;3623;47.098;15.446;2023-05-28T05:31:37;12.30;99.90
7163;DHT22;3623;47.098;15.446;2023-05-28T05:34:04;12.30;99.90
7163;DHT22;3623;47.098;15.446;2023-05-28T05:36:31;12.40;99.90
7163;DHT22;3623;47.098;15.446;2023-05-28T05:38:59;12.50;99.90
7163;DHT22;3623;47.098;15.446;2023-05-28T05:41:26;12.40;99.90
7163;DHT22;3623;47.098;15.446;2023-05-28T05:43:54;12.60;99.90
7163;DHT22;3623;47.098;15.446;2023-05-28T05:46:21;12.60;99.90
7163;DHT22;3623;47.098;15.446;2023-05-28T05:48:48;12.70;99.90
7163;DHT22;3623;47.098;15.446;2023-05-28T05:51:16;12.80;99.90
7163;DHT22;3623;47.098;15.446;2023-05-28T05:53:44;12.90;99.90
7163;DHT22;3623;47.098;15.446;2023-05-28T05:56:11;13.00;99.90
7163;DHT22;3623;47.098;15.446;2023-05-28T05:58:41;13.10;99.90
7163;DHT22;3623;47.098;15.446;2023-05-28T06:01:10;13.20;99.90
7163;DHT22;3623;47.098;15.446;2023-05-28T06:03:39;13.60;99.90
7163;DHT22;3623;47.098;15.446;2023-05-28T06:06:06;13.30;99.90
7163;DHT22;3623;47.098;15.446;2023-05-28T06:08:34;13.40;99.90
7163;DHT22;3623;47.098;15.446;2023-05-28T06:11:02;13.50;99.90
7163;DHT22;3623;47.098;15.446;2023-05-28T06:13:29;13.50;99.90
7163;DHT22;3623;47.098;15.446;2023-05-28T06:15:56;13.70;99.90
7163;DHT22;3623;47.098;15.446;2023-05-28T06:18:25;13.80;99.90
7163;DHT22;3623;47.098;15.446;2023-05-28T06:20:52;13.90;99.90
7163;DHT22;3623;47.098;15.446;2023-05-28T06:23:19;13.90;99.90
7163;DHT22;3623;47.098;15.446;2023-05-28T06:25:47;14.10;99.90
7163;DHT22;3623;47.098;15.446;2023-05-28T06:28:18;14.20;99.90
7163;DHT22;3623;47.098;15.446;2023-05-28T06:30:45;14.30;99.90
7163;DHT22;3623;47.098;15.446;2023-05-28T06:33:12;14.30;99.90
7163;DHT22;3623;47.098;15.446;2023-05-28T06:35:40;14.50;99.90
7163;DHT22;3623;47.098;15.446;2023-05-28T06:38:08;14.60;99.90
7163;DHT22;3623;47.098;15.446;2023-05-28T06:40:35;14.70;99.90
7163;DHT22;3623;47.098;15.446;2023-05-28T06:43:02;14.90;99.90
7163;DHT22;3623;47.098;15.446;2023-05-28T06:45:29;14.90;99.90
7163;DHT22;3623;47.098;15.446;2023-05-28T06:47:58;15.10;99.90
7163;DHT22;3623;47.098;15.446;2023-05-28T06:50:25;15.10;99.90
7163;DHT22;3623;47.098;15.446;2023-05-28T06:52:54;15.20;99.90
7163;DHT22;3623;47.098;15.446;2023-05-28T06:55:21;15.40;99.90
7163;DHT22;3623;47.098;15.446;2023-05-28T06:57:48;15.60;99.90
7163;DHT22;3623;47.098;15.446;2023-05-28T07:00:16;15.70;99.90
7163;DHT22;3623;47.098;15.446;2023-05-28T07:02:44;15.70;99.90
7163;DHT22;3623;47.098;15.446;2023-05-28T07:05:11;16.10;99.90
7163;DHT22;3623;47.098;15.446;2023-05-28T07:07:39;16.10;99.90
7163;DHT22;3623;47.098;15.446;2023-05-28T07:10:08;16.30;99.90
7163;DHT22;3623;47.098;15.446;2023-05-28T07:12:35;16.40;99.90
7163;DHT22;3623;47.098;15.446;2023-05-28T07:15:03;16.70;99.90
7163;DHT22;3623;47.098;15.446;2023-05-28T07:17:30;16.90;99.90
7163;DHT22;3623;47.098;15.446;2023-05-28T07:19:57;17.20;99.90
7163;DHT22;3623;47.098;15.446;2023-05-28T07:22:24;17.30;99.90
7163;DHT22;3623;47.098;15.446;2023-05-28T07:24:52;17.50;99.90
7163;DHT22;3623;47.098;15.446;2023-05-28T07:27:22;17.90;99.90
7163;DHT22;3623;47.098;15.446;2023-05-28T07:29:49;18.20;99.90
7163;DHT22;3623;47.098;15.446;2023-05-28T07:32:16;18.50;99.90
7163;DHT22;3623;47.098;15.446;2023-05-28T07:34:43;18.20;99.90
7163;DHT22;3623;47.098;15.446;2023-05-28T07:37:10;18.30;99.90
7163;DHT22;3623;47.098;15.446;2023-05-28T07:39:37;18.90;99.90
7163;DHT22;3623;47.098;15.446;2023-05-28T07:42:05;19.70;99.90
7163;DHT22;3623;47.098;15.446;2023-05-28T07:44:34;20.30;99.90
7163;DHT22;3623;47.098;15.446;2023-05-28T07:47:01;20.30;99.90
7163;DHT22;3623;47.098;15.446;2023-05-28T07:49:29;20.00;99.90
7163;DHT22;3623;47.098;15.446;2023-05-28T07:51:56;20.00;99.90
7163;DHT22;3623;47.098;15.446;2023-05-28T07:54:23;20.10;99.90
7163;DHT22;3623;47.098;15.446;2023-05-28T07:56:50;19.80;99.90
7163;DHT22;3623;47.098;15.446;2023-05-28T07:59:17;19.40;99.90
7163;DHT22;3623;47.098;15.446;2023-05-28T08:01:48;19.30;99.90
7163;DHT22;3623;47.098;15.446;2023-05-28T08:04:15;19.00;99.90
7163;DHT22;3623;47.098;15.446;2023-05-28T08:06:42;18.90;99.90
7163;DHT22;3623;47.098;15.446;2023-05-28T08:09:10;18.90;99.90
7163;DHT22;3623;47.098;15.446;2023-05-28T08:11:37;18.60;99.90
7163;DHT22;3623;47.098;15.446;2023-05-28T08:14:06;18.60;99.90
7163;DHT22;3623;47.098;15.446;2023-05-28T08:16:33;18.60;99.90
7163;DHT22;3623;47.098;15.446;2023-05-28T08:19:02;18.80;99.90
7163;DHT22;3623;47.098;15.446;2023-05-28T08:21:29;18.90;99.90
7163;DHT22;3623;47.098;15.446;2023-05-28T08:23:57;18.70;99.90
7163;DHT22;3623;47.098;15.446;2023-05-28T08:26:24;18.80;99.90
7163;DHT22;3623;47.098;15.446;2023-05-28T08:28:51;18.80;99.90
7163;DHT22;3623;47.098;15.446;2023-05-28T08:31:18;18.60;99.90
7163;DHT22;3623;47.098;15.446;2023-05-28T08:33:45;18.70;99.90
7163;DHT22;3623;47.098;15.446;2023-05-28T08:36:14;18.70;99.90
7163;DHT22;3623;47.098;15.446;2023-05-28T08:38:41;18.70;99.90
7163;DHT22;3623;47.098;15.446;2023-05-28T08:41:08;19.00;99.90
7163;DHT22;3623;47.098;15.446;2023-05-28T08:43:36;18.90;99.90
7163;DHT22;3623;47.098;15.446;2023-05-28T08:46:04;18.80;99.90
7163;DHT22;3623;47.098;15.446;2023-05-28T08:48:33;18.90;99.90
7163;DHT22;3623;47.098;15.446;2023-05-28T08:51:01;19.10;99.90
7163;DHT22;3623;47.098;15.446;2023-05-28T08:53:36;19.50;99.90
7163;DHT22;3623;47.098;15.446;2023-05-28T08:56:06;19.20;99.90
7163;DHT22;3623;47.098;15.446;2023-05-28T08:58:35;19.20;99.90
7163;DHT22;3623;47.098;15.446;2023-05-28T09:01:04;19.40;99.90
7163;DHT22;3623;47.098;15.446;2023-05-28T09:03:33;19.30;99.90
7163;DHT22;3623;47.098;15.446;2023-05-28T09:06:00;18.90;99.90
7163;DHT22;3623;47.098;15.446;2023-05-28T09:08:30;19.10;99.90
7163;DHT22;3623;47.098;15.446;2023-05-28T09:10:58;19.20;99.90
7163;DHT22;3623;47.098;15.446;2023-05-28T09:13:35;19.50;99.90
7163;DHT22;3623;47.098;15.446;2023-05-28T09:16:02;19.60;99.90
7163;DHT22;3623;47.098;15.446;2023-05-28T09:18:29;20.30;99.90
7163;DHT22;3623;47.098;15.446;2023-05-28T09:21:00;19.70;99.90
7163;DHT22;3623;47.098;15.446;2023-05-28T09:23:30;19.90;99.90
7163;DHT22;3623;47.098;15.446;2023-05-28T09:25:58;20.00;99.90
7163;DHT22;3623;47.098;15.446;2023-05-28T09:28:26;20.20;99.90
7163;DHT22;3623;47.098;15.446;2023-05-28T09:31:01;20.20;99.90
7163;DHT22;3623;47.098;15.446;2023-05-28T09:33:29;20.20;99.90
7163;DHT22;3623;47.098;15.446;2023-05-28T09:36:00;20.00;99.90
7163;DHT22;3623;47.098;15.446;2023-05-28T09:38:39;20.00;99.90
7163;DHT22;3623;47.098;15.446;2023-05-28T09:41:17;20.30;99.90
7163;DHT22;3623;47.098;15.446;2023-05-28T09:43:45;20.40;99.90
7163;DHT22;3623;47.098;15.446;2023-05-28T09:46:12;20.40;99.90
7163;DHT22;3623;47.098;15.446;2023-05-28T09:48:39;20.20;99.90
7163;DHT22;3623;47.098;15.446;2023-05-28T09:51:07;20.30;99.90
7163;DHT22;3623;47.098;15.446;2023-05-28T09:53:40;20.50;99.90
7163;DHT22;3623;47.098;15.446;2023-05-28T09:56:11;20.60;99.90
7163;DHT22;3623;47.098;15.446;2023-05-28T09:58:39;20.70;99.90
7163;DHT22;3623;47.098;15.446;2023-05-28T10:01:13;20.50;99.90
7163;DHT22;3623;47.098;15.446;2023-05-28T10:03:44;20.70;99.90
7163;DHT22;3623;47.098;15.446;2023-05-28T10:06:16;20.80;99.90
7163;DHT22;3623;47.098;15.446;2023-05-28T10:08:49;21.30;99.90
7163;DHT22;3623;47.098;15.446;2023-05-28T10:11:21;21.50;99.90
7163;DHT22;3623;47.098;15.446;2023-05-28T10:13:48;21.60;99.90
7163;DHT22;3623;47.098;15.446;2023-05-28T10:16:16;21.70;99.90
7163;DHT22;3623;47.098;15.446;2023-05-28T10:18:44;22.30;99.90
7163;DHT22;3623;47.098;15.446;2023-05-28T10:21:12;22.60;99.90
7163;DHT22;3623;47.098;15.446;2023-05-28T10:23:40;22.90;99.90
7163;DHT22;3623;47.098;15.446;2023-05-28T10:26:17;23.30;99.90
7163;DHT22;3623;47.098;15.446;2023-05-28T10:28:53;23.90;99.90
7163;DHT22;3623;47.098;15.446;2023-05-28T10:31:21;23.70;99.90
7163;DHT22;3623;47.098;15.446;2023-05-28T10:33:49;24.50;99.90
7163;DHT22;3623;47.098;15.446;2023-05-28T10:36:17;25.60;99.90
7163;DHT22;3623;47.098;15.446;2023-05-28T10:38:44;26.60;99.90
7163;DHT22;3623;47.098;15.446;2023-05-28T10:41:20;27.30;99.90
7163;DHT22;3623;47.098;15.446;2023-05-28T10:59:47;27.30;99.90
7163;DHT22;3623;47.098;15.446;2023-05-28T11:02:20;27.60;99.90
7163;DHT22;3623;47.098;15.446;2023-05-28T11:19:44;29.50;99.90
7163;DHT22;3623;47.098;15.446;2023-05-28T11:22:11;29.90;99.90
7163;DHT22;3623;47.098;15.446;2023-05-28T11:27:21;30.30;99.90
7163;DHT22;3623;47.098;15.446;2023-05-28T11:29:50;29.90;99.90
7163;DHT22;3623;47.098;15.446;2023-05-28T11:32:18;30.80;99.90
7163;DHT22;3623;47.098;15.446;2023-05-28T11:42:20;29.90;99.90
7163;DHT22;3623;47.098;15.446;2023-05-28T11:47:33;30.70;99.90
7163;DHT22;3623;47.098;15.446;2023-05-28T11:50:06;30.70;99.90
7163;DHT22;3623;47.098;15.446;2023-05-28T11:52:33;29.10;99.90
7163;DHT22;3623;47.098;15.446;2023-05-28T11:57:30;28.70;99.90
7163;DHT22;3623;47.098;15.446;2023-05-28T12:10:06;30.70;99.90
7163;DHT22;3623;47.098;15.446;2023-05-28T12:12:38;29.90;99.90
7163;DHT22;3623;47.098;15.446;2023-05-28T12:27:29;31.90;99.90
7163;DHT22;3623;47.098;15.446;2023-05-28T13:12:59;31.90;98.80
7163;DHT22;3623;47.098;15.446;2023-05-28T13:15:26;31.90;98.80
7163;DHT22;3623;47.098;15.446;2023-05-28T14:53:32;27.50;99.90
7163;DHT22;3623;47.098;15.446;2023-05-28T14:55:59;26.40;99.90
7163;DHT22;3623;47.098;15.446;2023-05-28T14:58:26;25.40;99.90
7163;DHT22;3623;47.098;15.446;2023-05-28T15:00:56;25.40;99.90
7163;DHT22;3623;47.098;15.446;2023-05-28T15:03:37;25.20;99.90
7163;DHT22;3623;47.098;15.446;2023-05-28T15:06:07;25.20;99.90
7163;DHT22;3623;47.098;15.446;2023-05-28T15:09:00;25.30;99.90
7163;DHT22;3623;47.098;15.446;2023-05-28T15:11:30;25.10;99.90
7163;DHT22;3623;47.098;15.446;2023-05-28T15:13:58;24.70;99.90
7163;DHT22;3623;47.098;15.446;2023-05-28T15:16:26;25.10;99.90
7163;DHT22;3623;47.098;15.446;2023-05-28T15:18:54;25.30;99.90
7163;DHT22;3623;47.098;15.446;2023-05-28T15:21:21;25.10;99.90
7163;DHT22;3623;47.098;15.446;2023-05-28T15:23:48;24.80;99.90
7163;DHT22;3623;47.098;15.446;2023-05-28T15:26:16;24.40;99.90
7163;DHT22;3623;47.098;15.446;2023-05-28T15:28:43;24.10;99.90
7163;DHT22;3623;47.098;15.446;2023-05-28T15:31:10;23.90;99.90
7163;DHT22;3623;47.098;15.446;2023-05-28T15:33:41;23.50;99.90
7163;DHT22;3623;47.098;15.446;2023-05-28T15:36:09;23.50;99.90
7163;DHT22;3623;47.098;15.446;2023-05-28T15:38:37;24.00;99.90
7163;DHT22;3623;47.098;15.446;2023-05-28T15:41:07;24.30;99.90
7163;DHT22;3623;47.098;15.446;2023-05-28T15:43:34;24.30;99.90
7163;DHT22;3623;47.098;15.446;2023-05-28T15:46:13;24.50;99.90
7163;DHT22;3623;47.098;15.446;2023-05-28T15:48:50;24.40;99.90
7163;DHT22;3623;47.098;15.446;2023-05-28T15:51:31;24.20;99.90
7163;DHT22;3623;47.098;15.446;2023-05-28T15:53:59;24.00;99.90
7163;DHT22;3623;47.098;15.446;2023-05-28T15:56:34;23.90;99.90
7163;DHT22;3623;47.098;15.446;2023-05-28T15:59:02;23.70;99.90
7163;DHT22;3623;47.098;15.446;2023-05-28T16:01:30;24.20;99.90
7163;DHT22;3623;47.098;15.446;2023-05-28T16:03:59;23.80;99.90
7163;DHT22;3623;47.098;15.446;2023-05-28T16:06:26;23.80;99.90
7163;DHT22;3623;47.098;15.446;2023-05-28T16:08:54;24.10;99.90
7163;DHT22;3623;47.098;15.446;2023-05-28T16:11:22;23.80;99.90
7163;DHT22;3623;47.098;15.446;2023-05-28T16:13:54;23.90;99.90
7163;DHT22;3623;47.098;15.446;2023-05-28T16:16:22;23.80;99.90
7163;DHT22;3623;47.098;15.446;2023-05-28T16:18:52;23.60;99.90
7163;DHT22;3623;47.098;15.446;2023-05-28T16:21:21;23.60;99.90
7163;DHT22;3623;47.098;15.446;2023-05-28T16:23:52;23.40;99.90
7163;DHT22;3623;47.098;15.446;2023-05-28T16:26:21;23.80;99.90
7163;DHT22;3623;47.098;15.446;2023-05-28T16:28:53;23.10;99.90
7163;DHT22;3623;47.098;15.446;2023-05-28T16:31:38;23.30;99.90
7163;DHT22;3623;47.098;15.446;2023-05-28T16:34:15;23.20;99.90
7163;DHT22;3623;47.098;15.446;2023-05-28T16:36:45;23.00;99.90
7163;DHT22;3623;47.098;15.446;2023-05-28T16:39:13;22.90;99.90
7163;DHT22;3623;47.098;15.446;2023-05-28T16:41:40;22.70;99.90
7163;DHT22;3623;47.098;15.446;2023-05-28T16:44:08;22.50;99.90
7163;DHT22;3623;47.098;15.446;2023-05-28T16:46:35;22.40;99.90
7163;DHT22;3623;47.098;15.446;2023-05-28T16:49:03;22.10;99.90
7163;DHT22;3623;47.098;15.446;2023-05-28T16:51:30;21.80;99.90
7163;DHT22;3623;47.098;15.446;2023-05-28T16:53:59;21.80;99.90
7163;DHT22;3623;47.098;15.446;2023-05-28T16:56:26;21.60;99.90
7163;DHT22;3623;47.098;15.446;2023-05-28T16:58:55;21.60;99.90
7163;DHT22;3623;47.098;15.446;2023-05-28T17:03:49;21.70;99.90
7163;DHT22;3623;47.098;15.446;2023-05-28T17:06:16;21.60;99.90
7163;DHT22;3623;47.098;15.446;2023-05-28T17:08:44;21.60;99.90
7163;DHT22;3623;47.098;15.446;2023-05-28T17:11:18;21.60;99.90
7163;DHT22;3623;47.098;15.446;2023-05-28T17:13:45;21.50;99.90
7163;DHT22;3623;47.098;15.446;2023-05-28T17:16:25;21.70;99.90
7163;DHT22;3623;47.098;15.446;2023-05-28T17:18:53;21.50;99.90
7163;DHT22;3623;47.098;15.446;2023-05-28T17:21:31;21.50;99.90
7163;DHT22;3623;47.098;15.446;2023-05-28T17:23:59;21.30;99.90
7163;DHT22;3623;47.098;15.446;2023-05-28T17:26:32;21.20;99.90
7163;DHT22;3623;47.098;15.446;2023-05-28T17:28:59;21.00;99.90
7163;DHT22;3623;47.098;15.446;2023-05-28T17:31:26;21.00;99.90
7163;DHT22;3623;47.098;15.446;2023-05-28T17:33:53;21.00;99.90
7163;DHT22;3623;47.098;15.446;2023-05-28T17:36:20;20.80;99.90
7163;DHT22;3623;47.098;15.446;2023-05-28T17:38:47;20.80;99.90
7163;DHT22;3623;47.098;15.446;2023-05-28T17:41:14;20.70;99.90
7163;DHT22;3623;47.098;15.446;2023-05-28T17:43:47;20.60;99.90
7163;DHT22;3623;47.098;15.446;2023-05-28T17:46:14;20.60;99.90
7163;DHT22;3623;47.098;15.446;2023-05-28T17:48:42;20.50;99.90
7163;DHT22;3623;47.098;15.446;2023-05-28T17:51:09;20.40;99.90
7163;DHT22;3623;47.098;15.446;2023-05-28T17:53:39;20.40;99.90
7163;DHT22;3623;47.098;15.446;2023-05-28T17:56:23;20.30;99.90
7163;DHT22;3623;47.098;15.446;2023-05-28T17:58:52;20.30;99.90
7163;DHT22;3623;47.098;15.446;2023-05-28T18:01:23;20.20;99.90
7163;DHT22;3623;47.098;15.446;2023-05-28T18:03:51;20.30;99.90
7163;DHT22;3623;47.098;15.446;2023-05-28T18:06:18;20.10;99.90
7163;DHT22;3623;47.098;15.446;2023-05-28T18:08:45;20.00;99.90
7163;DHT22;3623;47.098;15.446;2023-05-28T18:11:13;20.10;99.90
7163;DHT22;3623;47.098;15.446;2023-05-28T18:13:40;20.00;99.90
7163;DHT22;3623;47.098;15.446;2023-05-28T18:16:08;20.00;99.90
7163;DHT22;3623;47.098;15.446;2023-05-28T18:18:36;19.90;99.90
7163;DHT22;3623;47.098;15.446;2023-05-28T18:21:04;20.00;99.90
7163;DHT22;3623;47.098;15.446;2023-05-28T18:23:32;20.00;99.90
7163;DHT22;3623;47.098;15.446;2023-05-28T18:26:01;19.70;99.90
7163;DHT22;3623;47.098;15.446;2023-05-28T18:28:31;19.80;99.90
7163;DHT22;3623;47.098;15.446;2023-05-28T18:30:58;19.70;99.90
7163;DHT22;3623;47.098;15.446;2023-05-28T18:33:26;19.60;99.90
7163;DHT22;3623;47.098;15.446;2023-05-28T18:35:55;19.60;99.90
7163;DHT22;3623;47.098;15.446;2023-05-28T18:38:22;18.80;99.90
7163;DHT22;3623;47.098;15.446;2023-05-28T18:40:49;19.50;99.90
7163;DHT22;3623;47.098;15.446;2023-05-28T18:43:17;19.50;99.90
7163;DHT22;3623;47.098;15.446;2023-05-28T18:45:44;19.40;99.90
7163;DHT22;3623;47.098;15.446;2023-05-28T18:48:11;19.40;99.90
7163;DHT22;3623;47.098;15.446;2023-05-28T18:50:40;19.30;99.90
7163;DHT22;3623;47.098;15.446;2023-05-28T18:53:08;19.20;99.90
7163;DHT22;3623;47.098;15.446;2023-05-28T18:55:37;19.30;99.90
7163;DHT22;3623;47.098;15.446;2023-05-28T18:58:04;19.20;99.90
7163;DHT22;3623;47.098;15.446;2023-05-28T19:00:32;19.20;99.90
7163;DHT22;3623;47.098;15.446;2023-05-28T19:02:59;19.30;99.90
7163;DHT22;3623;47.098;15.446;2023-05-28T19:05:26;19.30;99.90
7163;DHT22;3623;47.098;15.446;2023-05-28T19:07:54;19.30;99.90
7163;DHT22;3623;47.098;15.446;2023-05-28T19:10:27;19.20;99.90
7163;DHT22;3623;47.098;15.446;2023-05-28T19:12:57;19.20;99.90
7163;DHT22;3623;47.098;15.446;2023-05-28T19:15:24;19.20;99.90
7163;DHT22;3623;47.098;15.446;2023-05-28T19:17:51;19.10;99.90
7163;DHT22;3623;47.098;15.446;2023-05-28T19:20:19;19.10;99.90
7163;DHT22;3623;47.098;15.446;2023-05-28T19:22:46;18.90;99.90